createdAt,value
2018-03-23T00:00:37.825Z,18.10
2018-03-23T00:01:37.799Z,18.30
2018-03-23T00:02:37.778Z,18.80
2018-03-23T00:03:37.757Z,27.10
2018-03-23T00:04:37.734Z,22.60
2018-03-23T00:05:37.713Z,23.90
2018-03-23T00:06:37.696Z,19.90
2018-03-23T00:07:37.679Z,22.80
2018-03-23T00:08:37.652Z,23.10
2018-03-23T00:09:37.640Z,25.90
2018-03-23T00:10:37.615Z,23.20
2018-03-23T00:11:37.601Z,24.50
2018-03-23T00:12:37.585Z,26.40
2018-03-23T00:13:37.563Z,23.30
2018-03-23T00:14:37.526Z,25.60
2018-03-23T00:15:37.514Z,24.40
2018-03-23T00:16:37.490Z,26.50
2018-03-23T00:17:37.463Z,23.00
2018-03-23T00:18:37.447Z,27.50
2018-03-23T00:19:37.425Z,22.50
2018-03-23T00:20:37.402Z,24.60
2018-03-23T00:21:37.382Z,29.00
2018-03-23T00:22:37.363Z,25.10
2018-03-23T00:23:37.338Z,26.20
2018-03-23T00:24:37.319Z,25.50
2018-03-23T00:25:37.296Z,29.70
2018-03-23T00:26:37.275Z,27.30
2018-03-23T00:27:37.258Z,24.90
2018-03-23T00:28:37.240Z,26.40
2018-03-23T00:29:37.216Z,28.40
2018-03-23T00:30:37.196Z,26.30
2018-03-23T00:31:37.196Z,23.30
2018-03-23T00:32:37.148Z,28.00
2018-03-23T00:33:37.128Z,27.20
2018-03-23T00:34:37.114Z,32.80
2018-03-23T00:35:37.091Z,33.20
2018-03-23T00:36:37.065Z,35.30
2018-03-23T00:37:37.045Z,32.10
2018-03-23T00:38:37.030Z,32.00
2018-03-23T00:39:37.004Z,31.20
2018-03-23T00:40:36.982Z,28.30
2018-03-23T00:41:36.966Z,36.70
2018-03-23T00:42:36.957Z,30.10
2018-03-23T00:43:36.918Z,33.30
2018-03-23T00:44:36.907Z,32.80
2018-03-23T00:45:36.878Z,33.60
2018-03-23T00:46:36.855Z,34.30
2018-03-23T00:47:36.832Z,33.90
2018-03-23T00:48:36.815Z,33.40
2018-03-23T00:49:36.792Z,32.20
2018-03-23T00:50:36.776Z,38.00
2018-03-23T00:51:36.752Z,34.30
2018-03-23T00:52:36.728Z,33.40
2018-03-23T00:53:36.714Z,34.30
2018-03-23T00:54:36.690Z,42.80
2018-03-23T00:55:36.668Z,35.70
2018-03-23T00:56:36.645Z,39.70
2018-03-23T00:57:36.626Z,34.50
2018-03-23T00:58:36.603Z,35.80
2018-03-23T00:59:36.586Z,38.50
2018-03-23T01:00:36.562Z,43.10
2018-03-23T01:01:36.545Z,43.10
2018-03-23T01:02:36.531Z,39.60
2018-03-23T01:03:36.516Z,37.30
2018-03-23T01:04:36.487Z,41.40
2018-03-23T01:05:36.459Z,39.50
2018-03-23T01:06:36.444Z,41.40
2018-03-23T01:07:36.417Z,45.70
2018-03-23T01:08:36.397Z,39.70
2018-03-23T01:09:36.378Z,42.50
2018-03-23T01:10:36.355Z,38.80
2018-03-23T01:11:36.338Z,37.80
2018-03-23T01:12:36.315Z,37.20
2018-03-23T01:13:36.294Z,42.40
2018-03-23T01:14:36.302Z,41.00
2018-03-23T01:15:36.249Z,43.00
2018-03-23T01:16:36.229Z,42.00
2018-03-23T01:17:36.207Z,41.80
2018-03-23T01:18:36.187Z,38.30
2018-03-23T01:19:36.165Z,41.80
2018-03-23T01:20:36.148Z,41.80
2018-03-23T01:21:36.134Z,42.20
2018-03-23T01:22:36.102Z,46.60
2018-03-23T01:23:36.083Z,41.30
2018-03-23T01:24:36.060Z,44.20
2018-03-23T01:25:36.039Z,42.70
2018-03-23T01:26:36.020Z,38.50
2018-03-23T01:27:36.001Z,38.00
2018-03-23T01:28:35.987Z,43.20
2018-03-23T01:29:35.958Z,41.80
2018-03-23T01:30:35.937Z,47.70
2018-03-23T01:31:35.939Z,40.40
2018-03-23T01:32:35.897Z,40.40
2018-03-23T01:33:35.877Z,40.20
2018-03-23T01:34:35.857Z,45.60
2018-03-23T01:35:35.834Z,42.00
2018-03-23T01:36:35.814Z,45.90
2018-03-23T01:37:35.791Z,47.10
2018-03-23T01:38:35.770Z,42.40
2018-03-23T01:39:35.754Z,42.70
2018-03-23T01:40:35.735Z,48.20
2018-03-23T01:41:35.707Z,45.20
2018-03-23T01:42:35.697Z,42.70
2018-03-23T01:43:35.667Z,43.70
2018-03-23T01:44:35.645Z,47.90
2018-03-23T01:45:35.620Z,53.80
2018-03-23T01:46:35.612Z,49.20
2018-03-23T01:47:35.581Z,46.30
2018-03-23T01:48:35.565Z,45.10
2018-03-23T01:49:35.541Z,47.30
2018-03-23T01:50:35.517Z,48.10
2018-03-23T01:51:35.496Z,45.60
2018-03-23T01:52:35.475Z,43.40
2018-03-23T01:53:35.453Z,46.50
2018-03-23T01:54:35.436Z,42.00
2018-03-23T01:55:35.415Z,49.30
2018-03-23T01:56:35.391Z,41.10
2018-03-23T01:57:35.375Z,41.20
2018-03-23T01:58:35.350Z,45.10
2018-03-23T01:59:35.330Z,46.70
2018-03-23T02:00:35.303Z,47.60
2018-03-23T02:01:35.285Z,46.90
2018-03-23T02:02:35.267Z,50.50
2018-03-23T02:03:35.239Z,44.90
2018-03-23T02:04:35.232Z,43.10
2018-03-23T02:05:35.209Z,43.30
2018-03-23T02:06:35.178Z,45.90
2018-03-23T02:07:35.155Z,46.20
2018-03-23T02:08:35.140Z,46.70
2018-03-23T02:09:35.120Z,47.70
2018-03-23T02:10:35.096Z,51.10
2018-03-23T02:11:35.072Z,47.40
2018-03-23T02:12:35.049Z,50.20
2018-03-23T02:13:35.033Z,48.90
2018-03-23T02:14:35.012Z,47.80
2018-03-23T02:15:34.987Z,44.50
2018-03-23T02:16:34.966Z,45.80
2018-03-23T02:17:34.949Z,51.10
2018-03-23T02:18:34.927Z,46.60
2018-03-23T02:19:34.908Z,52.50
2018-03-23T02:20:34.891Z,47.30
2018-03-23T02:21:34.868Z,53.30
2018-03-23T02:22:34.844Z,49.10
2018-03-23T02:23:34.817Z,48.10
2018-03-23T02:24:34.803Z,46.00
2018-03-23T02:25:34.777Z,46.60
2018-03-23T02:26:34.755Z,47.80
2018-03-23T02:27:34.732Z,47.60
2018-03-23T02:28:34.716Z,48.00
2018-03-23T02:29:34.690Z,54.90
2018-03-23T02:30:34.670Z,47.70
2018-03-23T02:31:34.655Z,48.10
2018-03-23T02:32:34.628Z,48.90
2018-03-23T02:33:34.606Z,53.50
2018-03-23T02:34:34.584Z,48.70
2018-03-23T02:35:34.564Z,52.00
2018-03-23T02:36:34.539Z,55.60
2018-03-23T02:37:34.517Z,55.00
2018-03-23T02:38:34.494Z,53.60
2018-03-23T02:39:34.480Z,51.50
2018-03-23T02:40:34.451Z,49.70
2018-03-23T02:41:34.435Z,51.20
2018-03-23T02:42:34.422Z,53.70
2018-03-23T02:43:34.392Z,56.60
2018-03-23T02:44:34.370Z,57.40
2018-03-23T02:45:34.347Z,59.90
2018-03-23T02:46:34.324Z,54.20
2018-03-23T02:47:34.304Z,58.00
2018-03-23T02:48:34.281Z,56.50
2018-03-23T02:49:34.264Z,57.10
2018-03-23T02:50:34.241Z,58.20
2018-03-23T02:51:34.220Z,53.90
2018-03-23T02:52:34.195Z,62.50
2018-03-23T02:53:34.174Z,57.30
2018-03-23T02:54:34.154Z,61.20
2018-03-23T02:55:34.130Z,52.50
2018-03-23T02:56:34.115Z,56.80
2018-03-23T02:57:34.091Z,56.00
2018-03-23T02:58:34.067Z,54.10
2018-03-23T02:59:34.046Z,55.60
2018-03-23T03:00:34.025Z,53.80
2018-03-23T03:01:34.006Z,61.00
2018-03-23T03:02:33.984Z,67.90
2018-03-23T03:03:33.962Z,59.10
2018-03-23T03:04:33.945Z,59.20
2018-03-23T03:05:33.924Z,58.40
2018-03-23T03:06:33.912Z,60.00
2018-03-23T03:07:33.876Z,65.40
2018-03-23T03:08:33.854Z,61.20
2018-03-23T03:09:33.835Z,68.30
2018-03-23T03:10:33.813Z,58.30
2018-03-23T03:11:33.791Z,64.10
2018-03-23T03:12:33.775Z,64.20
2018-03-23T03:13:33.756Z,67.50
2018-03-23T03:14:33.732Z,62.80
2018-03-23T03:15:33.709Z,64.20
2018-03-23T03:16:33.685Z,62.20
2018-03-23T03:17:33.665Z,61.10
2018-03-23T03:18:33.646Z,64.20
2018-03-23T03:19:33.626Z,62.30
2018-03-23T03:20:33.604Z,71.70
2018-03-23T03:21:33.581Z,64.90
2018-03-23T03:22:33.559Z,62.20
2018-03-23T03:23:33.538Z,62.80
2018-03-23T03:24:33.519Z,61.10
2018-03-23T03:25:33.495Z,63.50
2018-03-23T03:26:33.474Z,66.50
2018-03-23T03:27:33.458Z,69.20
2018-03-23T03:28:33.430Z,69.20
2018-03-23T03:29:33.409Z,63.80
2018-03-23T03:30:33.389Z,66.30
2018-03-23T03:31:33.370Z,64.30
2018-03-23T03:32:33.345Z,66.10
2018-03-23T03:33:33.325Z,68.30
2018-03-23T03:34:33.306Z,75.80
2018-03-23T03:35:33.282Z,67.20
2018-03-23T03:36:33.264Z,68.20
2018-03-23T03:37:33.240Z,73.40
2018-03-23T03:38:33.220Z,73.90
2018-03-23T03:39:33.204Z,72.70
2018-03-23T03:40:33.175Z,68.70
2018-03-23T03:41:33.155Z,74.20
2018-03-23T03:42:33.145Z,75.00
2018-03-23T03:43:33.115Z,77.20
2018-03-23T03:44:33.092Z,71.70
2018-03-23T03:45:33.074Z,70.90
2018-03-23T03:46:33.054Z,73.70
2018-03-23T03:47:33.029Z,74.20
2018-03-23T03:48:33.012Z,80.30
2018-03-23T03:49:32.985Z,72.90
2018-03-23T03:50:32.964Z,72.40
2018-03-23T03:51:32.945Z,74.30
2018-03-23T03:52:32.925Z,73.00
2018-03-23T03:53:32.902Z,66.10
2018-03-23T03:54:32.893Z,77.30
2018-03-23T03:55:32.862Z,73.80
2018-03-23T03:56:32.838Z,69.40
2018-03-23T03:57:32.814Z,72.80
2018-03-23T03:58:32.795Z,76.10
2018-03-23T03:59:32.786Z,70.80
2018-03-23T04:00:32.755Z,78.10
2018-03-23T04:01:32.736Z,76.00
2018-03-23T04:02:32.712Z,71.80
2018-03-23T04:03:32.696Z,71.20
2018-03-23T04:04:32.668Z,73.50
2018-03-23T04:05:32.648Z,74.00
2018-03-23T04:06:32.632Z,78.60
2018-03-23T04:07:32.605Z,74.30
2018-03-23T04:08:32.590Z,82.50
2018-03-23T04:09:32.565Z,68.80
2018-03-23T04:10:32.546Z,79.10
2018-03-23T04:11:32.519Z,79.60
2018-03-23T04:12:32.504Z,75.80
2018-03-23T04:13:32.479Z,84.10
2018-03-23T04:14:32.458Z,77.60
2018-03-23T04:15:32.435Z,79.70
2018-03-23T04:16:32.415Z,82.40
2018-03-23T04:17:32.393Z,84.30
2018-03-23T04:18:32.380Z,87.50
2018-03-23T04:19:32.358Z,82.70
2018-03-23T04:20:32.332Z,81.00
2018-03-23T04:21:32.314Z,85.90
2018-03-23T04:22:32.292Z,84.10
2018-03-23T04:23:32.268Z,80.50
2018-03-23T04:24:32.247Z,81.90
2018-03-23T04:25:32.228Z,84.40
2018-03-23T04:26:32.208Z,77.50
2018-03-23T04:27:32.186Z,83.30
2018-03-23T04:28:32.163Z,76.30
2018-03-23T04:29:32.142Z,84.50
2018-03-23T04:30:32.125Z,80.20
2018-03-23T04:31:32.102Z,81.50
2018-03-23T04:32:32.078Z,75.90
2018-03-23T04:33:32.058Z,87.10
2018-03-23T04:34:32.039Z,86.80
2018-03-23T04:35:32.015Z,86.90
2018-03-23T04:36:31.995Z,81.10
2018-03-23T04:37:31.976Z,89.20
2018-03-23T04:38:31.950Z,91.00
2018-03-23T04:39:31.936Z,82.90
2018-03-23T04:40:31.910Z,80.20
2018-03-23T04:41:31.891Z,82.60
2018-03-23T04:42:31.870Z,86.80
2018-03-23T04:43:31.846Z,85.80
2018-03-23T04:44:31.824Z,88.90
2018-03-23T04:45:31.808Z,86.40
2018-03-23T04:46:31.782Z,89.50
2018-03-23T04:47:31.771Z,89.70
2018-03-23T04:48:31.747Z,91.60
2018-03-23T04:49:31.726Z,97.70
2018-03-23T04:50:31.699Z,95.30
2018-03-23T04:51:31.675Z,97.90
2018-03-23T04:52:31.655Z,89.90
2018-03-23T04:53:31.635Z,96.90
2018-03-23T04:54:31.615Z,95.50
2018-03-23T04:55:31.592Z,89.60
2018-03-23T04:56:31.570Z,94.80
2018-03-23T04:57:31.555Z,89.10
2018-03-23T04:58:31.533Z,95.80
2018-03-23T04:59:31.507Z,85.80
2018-03-23T05:00:31.492Z,83.00
2018-03-23T05:01:31.469Z,95.70
2018-03-23T05:02:31.445Z,97.40
2018-03-23T05:03:31.426Z,97.50
2018-03-23T05:04:31.405Z,91.20
2018-03-23T05:05:31.386Z,87.70
2018-03-23T05:06:31.363Z,93.00
2018-03-23T05:07:31.340Z,99.90
2018-03-23T05:08:31.322Z,100.30
2018-03-23T05:09:31.298Z,94.10
2018-03-23T05:10:31.326Z,99.70
2018-03-23T05:11:31.255Z,93.50
2018-03-23T05:12:31.234Z,103.70
2018-03-23T05:13:31.217Z,109.00
2018-03-23T05:14:31.191Z,95.80
2018-03-23T05:15:31.175Z,93.50
2018-03-23T05:16:31.156Z,96.40
2018-03-23T05:17:31.137Z,95.90
2018-03-23T05:18:31.113Z,93.00
2018-03-23T05:19:31.085Z,109.70
2018-03-23T05:20:31.072Z,94.00
2018-03-23T05:21:31.046Z,94.30
2018-03-23T05:22:31.029Z,108.00
2018-03-23T05:23:31.007Z,108.10
2018-03-23T05:24:30.987Z,111.00
2018-03-23T05:25:30.963Z,108.00
2018-03-23T05:26:30.946Z,101.10
2018-03-23T05:27:30.922Z,110.90
2018-03-23T05:28:30.899Z,111.40
2018-03-23T05:29:30.882Z,113.60
2018-03-23T05:30:30.856Z,123.80
2018-03-23T05:31:30.835Z,112.30
2018-03-23T05:32:30.816Z,112.00
2018-03-23T05:33:30.797Z,114.00
2018-03-23T05:34:30.774Z,103.80
2018-03-23T05:35:30.750Z,97.30
2018-03-23T05:36:30.727Z,105.90
2018-03-23T05:37:30.708Z,120.70
2018-03-23T05:38:30.692Z,113.00
2018-03-23T05:39:30.668Z,117.60
2018-03-23T05:40:30.644Z,106.00
2018-03-23T05:41:30.622Z,113.50
2018-03-23T05:42:30.607Z,118.20
2018-03-23T05:43:30.580Z,114.30
2018-03-23T05:44:30.566Z,119.70
2018-03-23T05:45:30.546Z,115.20
2018-03-23T05:46:30.517Z,112.80
2018-03-23T05:47:30.500Z,109.60
2018-03-23T05:48:30.474Z,116.30
2018-03-23T05:49:30.454Z,112.80
2018-03-23T05:50:30.437Z,105.70
2018-03-23T05:51:30.413Z,110.90
2018-03-23T05:52:30.390Z,113.30
2018-03-23T05:53:30.378Z,130.30
2018-03-23T05:54:30.351Z,120.10
2018-03-23T05:55:30.328Z,124.30
2018-03-23T05:56:30.312Z,125.00
2018-03-23T05:57:30.284Z,122.80
2018-03-23T05:58:30.269Z,122.20
2018-03-23T05:59:30.245Z,141.00
2018-03-23T06:00:30.226Z,131.70
2018-03-23T06:01:30.205Z,136.30
2018-03-23T06:02:30.184Z,153.90
2018-03-23T06:03:30.160Z,144.60
2018-03-23T06:04:30.146Z,139.70
2018-03-23T06:05:30.122Z,140.10
2018-03-23T06:06:30.141Z,193.20
2018-03-23T06:07:30.083Z,166.70
2018-03-23T06:08:30.055Z,170.80
2018-03-23T06:09:30.036Z,146.90
2018-03-23T06:10:30.017Z,158.40
2018-03-23T06:11:29.995Z,190.60
2018-03-23T06:12:29.974Z,190.90
2018-03-23T06:13:29.955Z,197.90
2018-03-23T06:14:29.934Z,193.00
2018-03-23T06:15:29.911Z,164.30
2018-03-23T06:16:29.885Z,185.60
2018-03-23T06:17:29.865Z,180.50
2018-03-23T06:18:29.844Z,192.90
2018-03-23T06:19:29.827Z,179.60
2018-03-23T06:20:29.802Z,173.40
2018-03-23T06:21:29.781Z,203.80
2018-03-23T06:22:29.767Z,228.70
2018-03-23T06:23:29.741Z,216.00
2018-03-23T06:24:29.718Z,239.40
2018-03-23T06:25:29.696Z,252.00
2018-03-23T06:26:29.677Z,197.40
2018-03-23T06:27:29.654Z,225.70
2018-03-23T06:28:29.635Z,234.50
2018-03-23T06:29:29.616Z,264.90
2018-03-23T06:30:29.594Z,267.50
2018-03-23T06:31:29.571Z,244.70
2018-03-23T06:32:29.552Z,239.50
2018-03-23T06:33:29.541Z,282.80
2018-03-23T06:34:29.523Z,281.50
2018-03-23T06:35:29.486Z,223.00
2018-03-23T06:36:29.468Z,257.40
2018-03-23T06:37:29.443Z,250.00
2018-03-23T06:38:29.433Z,272.00
2018-03-23T06:39:29.401Z,294.30
2018-03-23T06:40:29.388Z,220.10
2018-03-23T06:41:29.405Z,234.30
2018-03-23T06:42:29.345Z,287.60
2018-03-23T06:43:29.316Z,275.10
2018-03-23T06:44:29.308Z,322.80
2018-03-23T06:45:29.274Z,268.40
2018-03-23T06:46:29.255Z,276.90
2018-03-23T06:47:29.229Z,259.30
2018-03-23T06:48:29.221Z,219.60
2018-03-23T06:49:29.187Z,307.10
2018-03-23T06:50:29.175Z,331.90
2018-03-23T06:51:29.147Z,310.10
2018-03-23T06:52:29.124Z,284.40
2018-03-23T06:53:29.105Z,287.70
2018-03-23T06:54:29.138Z,278.50
2018-03-23T06:55:29.064Z,297.70
2018-03-23T06:56:29.041Z,269.30
2018-03-23T06:57:29.021Z,285.60
2018-03-23T06:58:29.002Z,272.10
2018-03-23T06:59:28.981Z,278.60
2018-03-23T07:00:28.958Z,285.20
2018-03-23T07:01:28.933Z,356.00
2018-03-23T07:02:28.912Z,301.40
2018-03-23T07:03:28.893Z,319.40
2018-03-23T07:04:28.869Z,296.30
2018-03-23T07:05:28.857Z,249.70
2018-03-23T07:06:28.830Z,308.60
2018-03-23T07:07:28.805Z,276.00
2018-03-23T07:08:28.799Z,293.60
2018-03-23T07:09:28.764Z,264.30
2018-03-23T07:10:28.741Z,281.00
2018-03-23T07:11:28.726Z,261.10
2018-03-23T07:12:28.710Z,285.00
2018-03-23T07:13:28.683Z,263.70
2018-03-23T07:14:28.662Z,273.00
2018-03-23T07:15:28.634Z,278.90
2018-03-23T07:16:28.621Z,260.80
2018-03-23T07:17:28.594Z,284.50
2018-03-23T07:18:28.575Z,244.90
2018-03-23T07:19:28.562Z,280.70
2018-03-23T07:20:28.537Z,250.80
2018-03-23T07:21:28.512Z,243.10
2018-03-23T07:22:28.491Z,248.60
2018-03-23T07:23:28.476Z,239.70
2018-03-23T07:24:28.446Z,243.00
2018-03-23T07:25:28.426Z,245.30
2018-03-23T07:26:28.406Z,264.30
2018-03-23T07:27:28.383Z,251.50
2018-03-23T07:28:28.362Z,229.90
2018-03-23T07:29:28.345Z,257.40
2018-03-23T07:30:28.328Z,225.60
2018-03-23T07:31:28.300Z,247.80
2018-03-23T07:32:28.279Z,229.50
2018-03-23T07:33:28.261Z,226.10
2018-03-23T07:34:28.237Z,222.80
2018-03-23T07:35:28.216Z,201.40
2018-03-23T07:36:28.195Z,216.60
2018-03-23T07:37:28.172Z,227.90
2018-03-23T07:38:28.153Z,204.60
2018-03-23T07:39:28.134Z,219.00
2018-03-23T07:40:28.110Z,217.00
2018-03-23T07:41:28.085Z,201.80
2018-03-23T07:42:28.066Z,194.40
2018-03-23T07:43:28.044Z,197.40
2018-03-23T07:44:28.024Z,208.10
2018-03-23T07:45:28.005Z,188.10
2018-03-23T07:46:27.987Z,194.30
2018-03-23T07:47:27.958Z,184.20
2018-03-23T07:48:27.947Z,185.60
2018-03-23T07:49:27.927Z,172.80
2018-03-23T07:50:27.899Z,181.70
2018-03-23T07:51:27.875Z,193.30
2018-03-23T07:52:27.858Z,192.50
2018-03-23T07:53:27.834Z,192.40
2018-03-23T07:54:27.822Z,172.40
2018-03-23T07:55:27.791Z,178.20
2018-03-23T07:56:27.771Z,181.40
2018-03-23T07:57:27.756Z,175.40
2018-03-23T07:58:27.729Z,172.30
2018-03-23T07:59:27.708Z,177.20
2018-03-23T08:00:27.687Z,168.20
2018-03-23T08:01:27.696Z,157.00
2018-03-23T08:02:27.646Z,161.50
2018-03-23T08:03:27.872Z,154.50
2018-03-23T08:04:27.605Z,170.30
2018-03-23T08:05:27.579Z,165.80
2018-03-23T08:06:27.566Z,165.00
2018-03-23T08:07:27.538Z,158.00
2018-03-23T08:08:27.521Z,159.00
2018-03-23T08:09:27.494Z,164.30
2018-03-23T08:10:27.478Z,158.90
2018-03-23T08:11:27.452Z,159.30
2018-03-23T08:12:27.436Z,163.00
2018-03-23T08:13:27.413Z,162.30
2018-03-23T08:14:27.393Z,152.60
2018-03-23T08:15:27.369Z,162.80
2018-03-23T08:16:27.345Z,159.70
2018-03-23T08:17:27.326Z,162.00
2018-03-23T08:18:27.303Z,167.30
2018-03-23T08:19:27.285Z,160.30
2018-03-23T08:20:27.262Z,164.50
2018-03-23T08:21:27.243Z,160.10
2018-03-23T08:22:27.225Z,166.60
2018-03-23T08:23:27.198Z,159.00
2018-03-23T08:24:27.177Z,148.50
2018-03-23T08:25:27.159Z,153.10
2018-03-23T08:26:27.136Z,148.10
2018-03-23T08:27:27.118Z,154.00
2018-03-23T08:28:27.094Z,151.20
2018-03-23T08:29:27.072Z,135.90
2018-03-23T08:30:27.055Z,131.30
2018-03-23T08:31:27.032Z,125.90
2018-03-23T08:32:27.012Z,125.90
2018-03-23T08:33:26.992Z,124.40
2018-03-23T08:34:26.969Z,122.80
2018-03-23T08:35:26.945Z,121.60
2018-03-23T08:36:26.985Z,119.00
2018-03-23T08:37:26.906Z,117.70
2018-03-23T08:38:26.882Z,112.10
2018-03-23T08:39:26.863Z,116.80
2018-03-23T08:40:26.849Z,111.20
2018-03-23T08:41:26.827Z,119.70
2018-03-23T08:42:26.799Z,120.20
2018-03-23T08:43:26.780Z,116.90
2018-03-23T08:44:26.863Z,120.60
2018-03-23T08:45:26.733Z,114.70
2018-03-23T08:46:26.718Z,109.20
2018-03-23T08:47:26.699Z,106.90
2018-03-23T08:48:26.675Z,114.70
2018-03-23T08:49:26.655Z,106.90
2018-03-23T08:50:26.628Z,114.50
2018-03-23T08:51:26.606Z,109.20
2018-03-23T08:52:26.586Z,104.90
2018-03-23T08:53:26.625Z,105.80
2018-03-23T08:54:26.553Z,97.50
2018-03-23T08:55:26.529Z,102.10
2018-03-23T08:56:26.501Z,98.70
2018-03-23T08:57:26.482Z,93.20
2018-03-23T08:58:26.462Z,96.10
2018-03-23T08:59:26.438Z,96.90
2018-03-23T09:00:26.418Z,94.20
2018-03-23T09:01:26.396Z,92.60
2018-03-23T09:02:26.376Z,97.90
2018-03-23T09:03:26.356Z,99.10
2018-03-23T09:04:26.349Z,96.40
2018-03-23T09:05:26.311Z,90.30
2018-03-23T09:06:26.289Z,91.20
2018-03-23T09:07:26.264Z,93.30
2018-03-23T09:08:26.249Z,95.40
2018-03-23T09:09:26.229Z,89.80
2018-03-23T09:10:26.210Z,86.80
2018-03-23T09:11:26.183Z,83.50
2018-03-23T09:12:26.160Z,85.30
2018-03-23T09:13:26.146Z,84.40
2018-03-23T09:14:26.131Z,88.40
2018-03-23T09:15:26.098Z,86.60
2018-03-23T09:16:26.080Z,77.90
2018-03-23T09:17:26.058Z,82.80
2018-03-23T09:18:26.046Z,79.40
2018-03-23T09:19:26.018Z,78.80
2018-03-23T09:20:25.994Z,80.90
2018-03-23T09:21:26.225Z,83.00
2018-03-23T09:22:25.956Z,81.40
2018-03-23T09:23:25.943Z,71.50
2018-03-23T09:24:25.916Z,79.20
2018-03-23T09:25:25.891Z,75.60
2018-03-23T09:26:25.869Z,73.10
2018-03-23T09:27:25.846Z,75.20
2018-03-23T09:28:25.826Z,72.00
2018-03-23T09:29:25.840Z,76.80
2018-03-23T09:30:25.786Z,75.90
2018-03-23T09:31:25.771Z,73.40
2018-03-23T09:32:25.744Z,68.40
2018-03-23T09:33:25.726Z,72.40
2018-03-23T09:34:25.711Z,70.30
2018-03-23T09:35:25.681Z,63.90
2018-03-23T09:36:25.665Z,68.00
2018-03-23T09:37:25.638Z,64.90
2018-03-23T09:38:25.627Z,59.60
2018-03-23T09:39:25.625Z,60.90
2018-03-23T09:40:25.576Z,58.00
2018-03-23T09:41:25.562Z,59.70
2018-03-23T09:42:25.536Z,56.20
2018-03-23T09:43:25.524Z,55.70
2018-03-23T09:44:25.495Z,51.30
2018-03-23T09:45:25.472Z,57.80
2018-03-23T09:46:25.459Z,56.50
2018-03-23T09:47:25.430Z,51.30
2018-03-23T09:48:25.413Z,57.60
2018-03-23T09:49:25.403Z,53.70
2018-03-23T09:50:25.416Z,58.60
2018-03-23T09:51:25.349Z,59.70
2018-03-23T09:52:25.326Z,67.50
2018-03-23T09:53:25.306Z,64.70
2018-03-23T09:54:25.299Z,69.20
2018-03-23T09:55:25.265Z,68.70
2018-03-23T09:56:25.239Z,65.10
2018-03-23T09:57:25.226Z,74.60
2018-03-23T09:58:25.203Z,67.30
2018-03-23T09:59:25.181Z,73.10
2018-03-23T10:00:25.163Z,66.90
2018-03-23T10:01:25.141Z,66.60
2018-03-23T10:02:25.118Z,67.70
2018-03-23T10:03:25.092Z,66.10
2018-03-23T10:04:25.100Z,70.10
2018-03-23T10:05:25.092Z,65.70
2018-03-23T10:06:25.038Z,63.10
2018-03-23T10:07:25.016Z,61.90
2018-03-23T10:08:24.989Z,65.30
2018-03-23T10:09:24.968Z,64.80
2018-03-23T10:10:24.945Z,64.30
2018-03-23T10:11:24.926Z,63.30
2018-03-23T10:12:24.908Z,59.50
2018-03-23T10:13:24.882Z,57.30
2018-03-23T10:14:24.865Z,58.60
2018-03-23T10:15:24.893Z,58.50
2018-03-23T10:16:24.827Z,58.20
2018-03-23T10:17:24.800Z,56.80
2018-03-23T10:18:24.781Z,53.90
2018-03-23T10:19:24.763Z,50.10
2018-03-23T10:20:24.735Z,51.80
2018-03-23T10:21:24.716Z,45.80
2018-03-23T10:22:24.696Z,45.80
2018-03-23T10:23:24.676Z,43.80
2018-03-23T10:24:24.653Z,45.10
2018-03-23T10:25:24.634Z,44.80
2018-03-23T10:26:24.617Z,46.10
2018-03-23T10:27:24.592Z,45.70
2018-03-23T10:28:24.571Z,46.80
2018-03-23T10:29:24.566Z,45.70
2018-03-23T10:30:24.529Z,45.30
2018-03-23T10:31:24.514Z,44.90
2018-03-23T10:32:24.493Z,44.10
2018-03-23T10:33:24.467Z,43.70
2018-03-23T10:34:24.450Z,44.20
2018-03-23T10:35:24.473Z,43.90
2018-03-23T10:36:24.404Z,42.90
2018-03-23T10:37:24.389Z,41.50
2018-03-23T10:38:24.364Z,39.80
2018-03-23T10:39:24.346Z,39.80
2018-03-23T10:40:24.323Z,41.60
2018-03-23T10:41:24.300Z,41.10
2018-03-23T10:42:24.278Z,43.50
2018-03-23T10:43:24.261Z,42.90
2018-03-23T10:44:24.237Z,39.70
2018-03-23T10:45:24.217Z,41.40
2018-03-23T10:46:24.197Z,39.90
2018-03-23T10:47:24.176Z,36.80
2018-03-23T10:48:24.158Z,37.60
2018-03-23T10:49:24.135Z,38.80
2018-03-23T10:50:24.119Z,37.80
2018-03-23T10:51:24.111Z,40.50
2018-03-23T10:52:24.072Z,38.10
2018-03-23T10:53:24.055Z,39.50
2018-03-23T10:54:24.033Z,38.20
2018-03-23T10:55:24.016Z,40.10
2018-03-23T10:56:23.992Z,39.90
2018-03-23T10:57:23.972Z,38.30
2018-03-23T10:58:23.949Z,36.60
2018-03-23T10:59:23.934Z,35.10
2018-03-23T11:00:23.906Z,34.90
2018-03-23T11:01:23.885Z,35.40
2018-03-23T11:02:23.867Z,33.80
2018-03-23T11:03:23.845Z,33.30
2018-03-23T11:04:23.826Z,34.80
2018-03-23T11:05:23.806Z,32.20
2018-03-23T11:06:23.790Z,34.30
2018-03-23T11:07:23.766Z,33.20
2018-03-23T11:08:23.749Z,35.30
2018-03-23T11:09:23.722Z,36.30
2018-03-23T11:10:23.706Z,35.50
2018-03-23T11:11:23.683Z,34.50
2018-03-23T11:12:23.665Z,36.10
2018-03-23T11:13:23.643Z,35.90
2018-03-23T11:14:23.619Z,32.70
2018-03-23T11:15:23.645Z,33.90
2018-03-23T11:16:23.578Z,33.80
2018-03-23T11:17:23.566Z,34.00
2018-03-23T11:18:23.538Z,33.70
2018-03-23T11:19:23.516Z,35.90
2018-03-23T11:20:23.497Z,33.30
2018-03-23T11:21:23.478Z,37.10
2018-03-23T11:22:23.459Z,34.20
2018-03-23T11:23:23.445Z,36.80
2018-03-23T11:24:23.437Z,38.10
2018-03-23T11:25:23.395Z,41.00
2018-03-23T11:26:23.378Z,40.50
2018-03-23T11:27:23.353Z,41.50
2018-03-23T11:28:23.333Z,39.40
2018-03-23T11:29:23.319Z,40.00
2018-03-23T11:30:23.294Z,41.80
2018-03-23T11:31:23.280Z,42.90
2018-03-23T11:32:23.254Z,45.50
2018-03-23T11:33:23.234Z,43.20
2018-03-23T11:34:23.214Z,49.50
2018-03-23T11:35:23.194Z,50.90
2018-03-23T11:36:23.179Z,51.00
2018-03-23T11:37:23.158Z,49.30
2018-03-23T11:38:23.135Z,53.60
2018-03-23T11:39:23.112Z,53.00
2018-03-23T11:40:23.097Z,52.50
2018-03-23T11:41:23.071Z,55.10
2018-03-23T11:42:23.056Z,52.10
2018-03-23T11:43:23.033Z,54.10
2018-03-23T11:44:23.034Z,54.70
2018-03-23T11:45:22.993Z,58.20
2018-03-23T11:46:22.972Z,55.00
2018-03-23T11:47:22.955Z,55.30
2018-03-23T11:48:22.929Z,58.80
2018-03-23T11:49:22.914Z,56.20
2018-03-23T11:50:22.903Z,54.30
2018-03-23T11:51:22.866Z,56.80
2018-03-23T11:52:22.852Z,56.00
2018-03-23T11:53:22.827Z,55.90
2018-03-23T11:54:22.815Z,56.20
2018-03-23T11:55:22.797Z,56.50
2018-03-23T11:56:22.788Z,55.50
2018-03-23T11:57:22.747Z,55.80
2018-03-23T11:58:22.731Z,57.90
2018-03-23T11:59:22.712Z,57.20
2018-03-23T12:00:22.684Z,57.90
2018-03-23T12:01:22.668Z,54.40
2018-03-23T12:02:22.645Z,55.60
2018-03-23T12:03:22.632Z,58.60
2018-03-23T12:04:22.609Z,56.20
2018-03-23T12:05:22.586Z,57.90
2018-03-23T12:06:22.566Z,58.50
2018-03-23T12:07:22.542Z,57.80
2018-03-23T12:08:22.529Z,59.10
2018-03-23T12:09:22.502Z,58.80
2018-03-23T12:10:22.480Z,57.60
2018-03-23T12:11:22.463Z,57.00
2018-03-23T12:12:22.446Z,56.50
2018-03-23T12:13:22.424Z,55.20
2018-03-23T12:14:22.418Z,56.20
2018-03-23T12:15:22.381Z,54.70
2018-03-23T12:16:22.359Z,50.50
2018-03-23T12:17:22.339Z,51.40
2018-03-23T12:18:22.317Z,49.70
2018-03-23T12:19:22.296Z,51.30
2018-03-23T12:20:22.285Z,50.30
2018-03-23T12:21:22.256Z,48.90
2018-03-23T12:22:22.244Z,47.80
2018-03-23T12:23:22.215Z,48.00
2018-03-23T12:24:22.196Z,47.10
2018-03-23T12:25:22.179Z,47.40
2018-03-23T12:26:22.193Z,47.50
2018-03-23T12:27:22.137Z,47.30
2018-03-23T12:28:22.116Z,47.30
2018-03-23T12:29:22.098Z,48.30
2018-03-23T12:30:22.075Z,47.00
2018-03-23T12:31:22.053Z,49.40
2018-03-23T12:32:22.034Z,53.00
2018-03-23T12:33:22.020Z,52.00
2018-03-23T12:34:21.995Z,51.80
2018-03-23T12:35:21.972Z,55.80
2018-03-23T12:36:22.204Z,57.80
2018-03-23T12:37:21.933Z,59.50
2018-03-23T12:38:21.920Z,58.70
2018-03-23T12:39:21.899Z,62.00
2018-03-23T12:40:21.875Z,61.10
2018-03-23T12:41:21.852Z,59.70
2018-03-23T12:42:21.834Z,58.70
2018-03-23T12:43:21.810Z,59.30
2018-03-23T12:44:21.794Z,61.50
2018-03-23T12:45:21.778Z,60.30